Main page
METAR-TAF:

METAR-TAF

Airports :

Burgos Airport

Burgos, Spain

latitude: 42-22N, longitude: 003-38W, elevation: 894 m

Current weather observation

The report was made 18 minutes ago, at 01:30 UTC
Wind 13 kt from the Northeast, varying between North and East/Northeast
Temperature 16°C
Humidity 94%
Pressure 1023 hPa
Visibility: 8000 m

METAR: LEBG 220130Z AUTO 05013KT 010V070 8000 OVC005/// 16/15 Q1023

Time: 03:48 (01:48 UTC)

Forecast

The report was made 8 hours and 48 minutes ago, at 17:00 UTC
Forecast valid from 21 at 18 UTC to 22 at 03 UTC
Wind 13 kt from the Northeast
Visibility 10 km or more
no clouds below 1500 m and no cumulonimbus
Probability 40% :
Temporary
from 21 at 22 UTC to 22 at 03 UTC
Broken clouds at a height of 1000 ft

TAF: LEBG 211700Z 2118/2203 05013KT CAVOK PROB40 TEMPO 2122/2203 BKN010

Weather observations and forecasts of more than 4000 airports (METAR and TAF reports).

The available stations are represented by yellow and red dots on the map.

Hover mouse over dot to see the name of the station.

Then click to see weather observations and forecasts.

To change the map : click on the green buttons with a black cross to zoom in, on the green button with a dash to zoom out, or on the green arrows for adjacent maps.


METAR-TAF: